Time;durP1;ratioP1;P1;durP2;ratioP2;P2;SDS_P1;SDS_P2;PMS_P1;PMS_P2;Temp;Humidity;BMP_temperature;BMP_pressure;BME280_temperature;BME280_humidity;BME280_pressure;Samples;Min_cycle;Max_cycle;Signal;HPM_P1;HPM_P2
2022/01/14 00:01:50;;;;;;;442.80;65.43;;;6.70;99.90;;;;;;6256410;23;20391;-81
2022/01/14 00:04:36;;;;;;;177.67;50.50;;;6.70;99.90;;;;;;6229323;23;20427;-82
2022/01/14 00:07:16;;;;;;;330.37;63.00;;;6.70;99.90;;;;;;6256825;23;20469;-81
2022/01/14 00:09:48;;;;;;;308.57;56.70;;;6.70;99.90;;;;;;6229186;23;20402;-81
2022/01/14 00:33:21;;;;;;;440.67;57.40;;;6.50;99.90;;;;;;5932119;23;20482;-81
2022/01/14 00:35:49;;;;;;;296.97;49.47;;;6.60;99.90;;;;;;6128169;23;20437;-81
2022/01/14 00:38:23;;;;;;;371.80;56.77;;;6.60;99.90;;;;;;6134775;23;20550;-81
2022/01/14 00:40:52;;;;;;;261.77;45.87;;;6.60;99.90;;;;;;6135309;23;20413;-82
2022/01/14 00:43:24;;;;;;;335.13;58.20;;;6.50;99.90;;;;;;6145706;23;20417;-81
2022/01/14 00:52:26;;;;;;;193.47;34.47;;;6.50;99.90;;;;;;5853044;24;20423;-81
2022/01/14 00:54:55;;;;;;;500.73;64.97;;;6.50;99.90;;;;;;6073633;23;20430;-82
2022/01/14 00:59:14;;;;;;;335.60;48.97;;;6.50;99.90;;;;;;6053640;23;20965;-81
2022/01/14 01:00:18;;;;;;;271.67;54.30;;;6.50;99.90;;;;;;6077027;23;20423;-81
2022/01/14 01:02:48;;;;;;;141.53;35.50;;;6.50;99.90;;;;;;6053379;23;20419;-82
2022/01/14 01:05:22;;;;;;;398.50;55.17;;;6.50;99.90;;;;;;6077155;23;20439;-81
2022/01/14 01:08:02;;;;;;;215.00;51.37;;;6.50;99.90;;;;;;6053720;23;20414;-82
2022/01/14 01:10:45;;;;;;;;;;;;;;;;;;;;;
2022/01/14 01:13:20;;;;;;;404.13;58.63;;;6.50;99.90;;;;;;6074983;23;20526;-81
2022/01/14 01:15:54;;;;;;;422.70;73.47;;;6.50;99.90;;;;;;6077185;23;20579;-82
2022/01/14 01:18:32;;;;;;;253.43;42.27;;;6.50;99.90;;;;;;6121116;23;20488;-81
2022/01/14 01:21:02;;;;;;;326.83;59.97;;;6.50;99.90;;;;;;6109802;23;20425;-81
2022/01/14 01:23:31;;;;;;;230.33;56.03;;;6.50;99.90;;;;;;6147192;23;20401;-81
2022/01/14 01:26:13;;;;;;;379.43;56.57;;;6.50;99.90;;;;;;6137486;23;20437;-81
2022/01/14 01:28:56;;;;;;;154.57;39.57;;;6.50;99.90;;;;;;6137107;23;20504;-81
2022/01/14 01:31:37;;;;;;;377.57;49.40;;;6.50;99.90;;;;;;6136589;23;20755;-81
2022/01/14 01:34:11;;;;;;;130.70;39.00;;;6.50;99.90;;;;;;6146792;23;20397;-81
2022/01/14 01:36:54;;;;;;;274.70;45.57;;;6.50;99.90;;;;;;6113608;23;20433;-81
2022/01/14 01:59:17;;;;;;;457.13;73.80;;;6.40;99.90;;;;;;5904914;24;20467;-83
2022/01/14 02:01:46;;;;;;;386.07;57.63;;;6.40;99.90;;;;;;6068431;23;20417;-80
2022/01/14 02:17:34;;;;;;;234.97;46.47;;;6.50;99.90;;;;;;5972402;23;20778;-80
2022/01/14 02:22:56;;;;;;;208.03;47.97;;;6.50;99.90;;;;;;6269934;23;20771;-80
2022/01/14 02:25:30;;;;;;;345.83;55.23;;;6.40;99.90;;;;;;6269469;22;20505;-81
2022/01/14 02:28:05;;;;;;;428.03;68.87;;;6.50;99.90;;;;;;6269447;23;20414;-80
2022/01/14 02:30:35;;;;;;;242.07;42.30;;;6.50;99.90;;;;;;6232323;23;20401;-80
2022/01/14 02:33:04;;;;;;;411.57;57.30;;;6.50;99.90;;;;;;6233014;23;20426;-81
2022/01/14 02:35:37;;;;;;;334.93;53.07;;;6.40;99.90;;;;;;6232471;23;20434;-80
2022/01/14 02:38:06;;;;;;;447.10;55.13;;;6.50;99.90;;;;;;6232283;23;20434;-80
2022/01/14 02:40:41;;;;;;;284.33;43.20;;;6.50;99.90;;;;;;6257434;23;20418;-80
2022/01/14 02:43:13;;;;;;;343.10;63.93;;;6.50;99.90;;;;;;6232678;23;20409;-81
2022/01/14 02:45:48;;;;;;;293.57;54.70;;;6.50;99.90;;;;;;6232796;23;20434;-80
2022/01/14 02:48:24;;;;;;;218.50;38.43;;;6.50;99.90;;;;;;6232380;23;20406;-80
2022/01/14 02:51:01;;;;;;;332.37;55.57;;;6.50;99.90;;;;;;6232861;23;20413;-80
2022/01/14 02:53:44;;;;;;;445.63;65.33;;;6.50;99.90;;;;;;6232672;23;20412;-80
2022/01/14 02:56:49;;;;;;;436.67;59.87;;;6.50;99.90;;;;;;6231986;23;20432;-81
2022/01/14 02:59:22;;;;;;;213.67;52.77;;;6.50;99.90;;;;;;6232428;23;20434;-80
2022/01/14 03:02:08;;;;;;;346.63;55.73;;;6.50;99.90;;;;;;6231586;23;20481;-80
2022/01/14 03:04:44;;;;;;;124.53;39.57;;;6.50;99.90;;;;;;6231033;23;20529;-80
2022/01/14 03:07:17;;;;;;;350.97;57.27;;;6.50;99.90;;;;;;6231762;23;20418;-81
2022/01/14 03:09:46;;;;;;;329.17;53.50;;;6.50;99.90;;;;;;6232644;23;20888;-80
2022/01/14 03:12:16;;;;;;;282.87;57.00;;;6.50;99.90;;;;;;6231805;23;20498;-80
2022/01/14 03:14:58;;;;;;;342.77;52.50;;;6.50;99.90;;;;;;6256984;22;20441;-80
2022/01/14 03:17:30;;;;;;;485.93;83.67;;;6.50;99.90;;;;;;6232439;23;20413;-80
2022/01/14 03:20:01;;;;;;;336.53;71.40;;;6.50;99.90;;;;;;6231979;23;20452;-80
2022/01/14 03:22:34;;;;;;;240.53;47.40;;;6.50;99.90;;;;;;6258176;23;20468;-80
2022/01/14 03:27:55;;;;;;;307.27;58.13;;;6.50;99.90;;;;;;6231922;23;20413;-80
2022/01/14 03:30:23;;;;;;;233.17;53.83;;;6.50;99.90;;;;;;6231327;23;20417;-81
2022/01/14 03:32:51;;;;;;;415.00;68.13;;;6.50;99.90;;;;;;6231254;23;20418;-80
2022/01/14 03:35:22;;;;;;;224.10;54.37;;;6.50;99.90;;;;;;6268802;22;20452;-80
2022/01/14 03:37:54;;;;;;;175.80;46.23;;;6.50;99.90;;;;;;6257345;23;20422;-80
2022/01/14 03:40:22;;;;;;;521.93;65.93;;;6.50;99.90;;;;;;6231878;23;20409;-80
2022/01/14 03:42:50;;;;;;;250.33;50.90;;;6.50;99.90;;;;;;6257866;23;20424;-80
2022/01/14 03:45:22;;;;;;;308.33;54.33;;;6.60;99.90;;;;;;6268339;22;20416;-80
2022/01/14 03:47:50;;;;;;;529.77;70.47;;;6.50;99.90;;;;;;6268701;23;20409;-80
2022/01/14 03:50:25;;;;;;;300.07;59.60;;;6.50;99.90;;;;;;6268928;23;20393;-80
2022/01/14 03:53:00;;;;;;;243.20;48.77;;;6.50;99.90;;;;;;6231198;23;20413;-80
2022/01/14 03:55:29;;;;;;;360.43;72.23;;;6.50;99.90;;;;;;6231638;23;20433;-80
2022/01/14 03:57:58;;;;;;;272.60;53.87;;;6.60;99.90;;;;;;6234540;23;20424;-80
2022/01/14 04:00:31;;;;;;;324.37;49.13;;;6.60;99.90;;;;;;6233987;23;20402;-81
2022/01/14 04:03:00;;;;;;;371.77;58.20;;;6.50;99.90;;;;;;6233970;23;20410;-80
2022/01/14 04:05:29;;;;;;;270.07;44.40;;;6.50;99.90;;;;;;6230251;23;20433;-80
2022/01/14 04:07:57;;;;;;;422.27;65.70;;;6.50;99.90;;;;;;6257693;23;20424;-80
2022/01/14 04:10:29;;;;;;;310.37;49.33;;;6.50;99.90;;;;;;6232738;23;20402;-80
2022/01/14 04:13:04;;;;;;;324.57;58.83;;;6.50;99.90;;;;;;6232011;23;20804;-80
2022/01/14 04:15:37;;;;;;;227.27;57.37;;;6.50;99.90;;;;;;6268127;22;20463;-81
2022/01/14 04:18:07;;;;;;;304.33;44.87;;;6.50;99.90;;;;;;6231954;23;20409;-81
2022/01/14 04:20:38;;;;;;;445.60;63.57;;;6.50;99.90;;;;;;6257263;22;20452;-80
2022/01/14 04:23:11;;;;;;;366.90;61.10;;;6.50;99.90;;;;;;6231432;23;20485;-80
2022/01/14 04:25:42;;;;;;;321.30;55.87;;;6.50;99.90;;;;;;6267699;22;20414;-80
2022/01/14 04:28:11;;;;;;;191.63;42.73;;;6.50;99.90;;;;;;6231141;23;20445;-80
2022/01/14 04:30:39;;;;;;;138.60;41.57;;;6.50;99.90;;;;;;6258708;23;20417;-81
2022/01/14 04:33:08;;;;;;;152.40;38.20;;;6.50;99.90;;;;;;6268429;23;20488;-81
2022/01/14 04:35:36;;;;;;;179.13;41.47;;;6.50;99.90;;;;;;6230953;23;20493;-81
2022/01/14 04:38:06;;;;;;;463.50;66.47;;;6.50;99.90;;;;;;6231160;23;20425;-81
2022/01/14 04:40:37;;;;;;;427.13;65.80;;;6.50;99.90;;;;;;6260207;23;20429;-81
2022/01/14 04:43:09;;;;;;;299.80;51.70;;;6.50;99.90;;;;;;6258640;23;20478;-81
2022/01/14 04:46:01;;;;;;;267.03;52.40;;;6.40;99.90;;;;;;6230397;23;20430;-82
2022/01/14 04:56:33;;;;;;;532.87;114.07;;;6.40;99.90;;;;;;5925758;23;20421;-80
2022/01/14 04:59:05;;;;;;;437.23;69.77;;;6.40;99.90;;;;;;6047496;23;20470;-80
2022/01/14 05:01:47;;;;;;;330.47;62.37;;;6.30;99.90;;;;;;6052993;23;20454;-80
2022/01/14 05:04:16;;;;;;;379.27;57.43;;;6.40;99.90;;;;;;6078230;23;20442;-81
2022/01/14 05:06:49;;;;;;;402.13;66.43;;;6.30;99.90;;;;;;6054262;23;20443;-81
2022/01/14 05:09:25;;;;;;;473.77;61.63;;;6.30;99.90;;;;;;6055493;23;20403;-81
2022/01/14 05:11:58;;;;;;;252.43;47.63;;;6.30;99.90;;;;;;6190489;23;20414;-80
2022/01/14 05:14:38;;;;;;;252.63;41.33;;;6.30;99.90;;;;;;6196259;23;20431;-80
2022/01/14 05:43:49;;;;;;;328.40;57.73;;;6.30;99.90;;;;;;5851399;24;20171;-81
2022/01/14 05:46:18;;;;;;;264.77;49.27;;;6.30;99.90;;;;;;6163013;23;20257;-80
2022/01/14 05:48:52;;;;;;;319.80;59.97;;;6.30;99.90;;;;;;6227702;23;20450;-80
2022/01/14 05:51:21;;;;;;;444.23;57.23;;;6.30;99.90;;;;;;6200681;23;20492;-80
2022/01/14 05:53:49;;;;;;;363.17;54.33;;;6.30;99.90;;;;;;6199841;23;20446;-81
2022/01/14 05:56:17;;;;;;;330.27;51.17;;;6.40;99.90;;;;;;6201415;23;20418;-80
2022/01/14 05:58:48;;;;;;;501.13;69.77;;;6.40;99.90;;;;;;6200431;23;20437;-81
2022/01/14 06:01:18;;;;;;;402.50;57.83;;;6.40;99.90;;;;;;6200692;23;20412;-80
2022/01/14 06:03:47;;;;;;;488.63;69.90;;;6.40;99.90;;;;;;6200854;23;20503;-80
2022/01/14 06:06:16;;;;;;;331.60;54.63;;;6.40;99.90;;;;;;6198929;23;20477;-81
2022/01/14 06:08:49;;;;;;;434.43;63.67;;;6.40;99.90;;;;;;6198206;23;20414;-80
2022/01/14 06:11:21;;;;;;;270.80;50.60;;;6.40;99.90;;;;;;6202629;23;20410;-81
2022/01/14 06:13:56;;;;;;;462.30;75.13;;;6.40;99.90;;;;;;6225453;23;20414;-80
2022/01/14 06:16:24;;;;;;;359.73;80.20;;;6.40;99.90;;;;;;6200162;23;20410;-80
2022/01/14 06:19:00;;;;;;;368.03;61.93;;;6.40;99.90;;;;;;6235699;23;20375;-80
2022/01/14 06:21:33;;;;;;;354.93;62.70;;;6.40;99.90;;;;;;6224831;23;20394;-81
2022/01/14 06:24:01;;;;;;;239.27;49.77;;;6.40;99.90;;;;;;6199041;23;20465;-80
2022/01/14 06:26:29;;;;;;;443.63;65.87;;;6.40;99.90;;;;;;6199160;23;20482;-81
2022/01/14 06:29:06;;;;;;;238.90;54.33;;;6.40;99.90;;;;;;6226296;23;20929;-80
2022/01/14 06:32:46;;;;;;;495.63;78.87;;;6.40;99.90;;;;;;6084461;23;20421;-80
2022/01/14 06:35:54;;;;;;;270.67;45.83;;;6.40;99.90;;;;;;6027653;23;20451;-81
2022/01/14 06:38:25;;;;;;;354.03;53.97;;;6.40;99.90;;;;;;6134615;23;20422;-80
2022/01/14 06:40:53;;;;;;;343.47;62.90;;;6.40;99.90;;;;;;6134534;23;20444;-80
2022/01/14 06:43:36;;;;;;;127.57;40.90;;;6.40;99.90;;;;;;6135042;23;20806;-80
2022/01/14 06:46:17;;;;;;;324.67;58.50;;;6.40;99.90;;;;;;6110746;23;20512;-80
2022/01/14 06:48:45;;;;;;;447.07;63.47;;;6.50;99.90;;;;;;6135402;23;20921;-80
2022/01/14 06:51:15;;;;;;;623.80;83.30;;;6.50;99.90;;;;;;6135890;23;20421;-80
2022/01/14 06:53:46;;;;;;;272.20;56.37;;;6.40;99.90;;;;;;6144449;23;20496;-81
2022/01/14 06:56:15;;;;;;;283.57;54.70;;;6.50;99.90;;;;;;6110008;23;20442;-80
2022/01/14 06:58:45;;;;;;;325.23;57.07;;;6.50;99.90;;;;;;6111110;23;20441;-80
2022/01/14 07:01:15;;;;;;;481.87;58.90;;;6.50;99.90;;;;;;6110582;23;20516;-81
2022/01/14 07:03:46;;;;;;;477.13;76.33;;;6.50;99.90;;;;;;6135122;23;20396;-80
2022/01/14 07:06:15;;;;;;;355.40;54.57;;;6.50;99.90;;;;;;6228364;23;20469;-81
2022/01/14 07:08:43;;;;;;;277.53;49.73;;;6.50;99.90;;;;;;6226845;23;20418;-81
2022/01/14 07:11:12;;;;;;;241.23;54.13;;;6.50;99.90;;;;;;6199955;23;20430;-81
2022/01/14 07:13:40;;;;;;;399.47;55.87;;;6.50;99.90;;;;;;6199294;23;20478;-80
2022/01/14 07:16:09;;;;;;;259.77;42.33;;;6.50;99.90;;;;;;6198864;23;20467;-80
2022/01/14 07:18:38;;;;;;;323.10;61.80;;;6.50;99.90;;;;;;6198981;23;20810;-80
2022/01/14 07:21:18;;;;;;;350.60;64.30;;;6.50;99.90;;;;;;6228045;23;20445;-80
2022/01/14 07:23:50;;;;;;;376.93;59.90;;;6.50;99.90;;;;;;6229374;23;20444;-81
2022/01/14 07:26:21;;;;;;;452.20;76.27;;;6.60;99.90;;;;;;6230135;23;20406;-81
2022/01/14 07:28:53;;;;;;;381.70;59.17;;;6.50;99.90;;;;;;6229631;23;20389;-81
2022/01/14 07:31:21;;;;;;;330.57;63.00;;;6.60;99.90;;;;;;6229415;23;20413;-81
2022/01/14 07:33:51;;;;;;;524.13;66.37;;;6.60;99.90;;;;;;6229649;23;20797;-80
2022/01/14 07:36:19;;;;;;;348.00;66.77;;;6.60;99.90;;;;;;6256586;23;20429;-81
2022/01/14 07:38:47;;;;;;;323.40;62.93;;;6.60;99.90;;;;;;6230059;23;20425;-81
2022/01/14 07:41:15;;;;;;;294.80;54.80;;;6.60;99.90;;;;;;6229845;23;20434;-81
2022/01/14 07:43:48;;;;;;;184.10;49.53;;;6.60;99.90;;;;;;6255637;23;20414;-80
2022/01/14 07:46:18;;;;;;;301.63;44.63;;;6.60;99.90;;;;;;6229545;23;20435;-80
2022/01/14 07:48:58;;;;;;;274.40;47.63;;;6.60;99.90;;;;;;6229286;23;20414;-80
2022/01/14 08:08:16;;;;;;;464.77;62.70;;;6.70;99.90;;;;;;5963604;23;20426;-80
2022/01/14 08:10:45;;;;;;;441.00;66.23;;;6.60;99.90;;;;;;6132511;23;20417;-80
2022/01/14 08:13:13;;;;;;;128.87;43.53;;;6.70;99.90;;;;;;6107798;23;20449;-80
2022/01/14 08:15:41;;;;;;;420.10;64.87;;;6.70;99.90;;;;;;6107486;23;20452;-80
2022/01/14 08:18:14;;;;;;;365.77;55.63;;;6.70;99.90;;;;;;6132939;23;20489;-81
2022/01/14 08:20:45;;;;;;;348.83;47.83;;;6.70;99.90;;;;;;6108249;23;20445;-80
2022/01/14 08:23:15;;;;;;;166.47;41.40;;;6.70;99.90;;;;;;6108510;23;20476;-81
2022/01/14 08:26:54;;;;;;;385.23;71.80;;;6.70;99.90;;;;;;6083443;23;20946;-80
2022/01/14 08:40:23;;;;;;;445.53;72.30;;;6.80;99.90;;;;;;5947142;23;20531;-81
2022/01/14 08:42:55;;;;;;;266.87;45.73;;;6.80;99.90;;;;;;6156770;23;20417;-80
2022/01/14 08:45:24;;;;;;;288.30;55.33;;;6.80;99.90;;;;;;6226752;23;20459;-80
2022/01/14 08:47:56;;;;;;;413.80;59.87;;;6.80;99.90;;;;;;6226880;23;20402;-79
2022/01/14 08:50:26;;;;;;;317.77;61.10;;;6.80;99.90;;;;;;6226342;23;20762;-79
2022/01/14 08:52:55;;;;;;;286.50;58.63;;;6.90;99.90;;;;;;6252156;23;20412;-79
2022/01/14 08:55:24;;;;;;;245.43;51.10;;;6.90;99.90;;;;;;6252859;23;20433;-79
2022/01/14 08:57:53;;;;;;;297.00;48.37;;;6.90;99.90;;;;;;6227404;23;20424;-79
2022/01/14 09:00:26;;;;;;;269.00;48.33;;;6.90;99.90;;;;;;6227226;23;20445;-79
2022/01/14 09:02:55;;;;;;;428.60;61.43;;;6.90;99.90;;;;;;6227832;23;20425;-80
2022/01/14 09:05:24;;;;;;;335.73;55.60;;;6.90;99.90;;;;;;6264796;22;20487;-79
2022/01/14 09:07:57;;;;;;;338.40;50.83;;;6.90;99.90;;;;;;6264343;23;20645;-79
2022/01/14 09:10:25;;;;;;;479.63;70.13;;;7.00;99.90;;;;;;6227488;23;20417;-79
2022/01/14 09:12:53;;;;;;;295.87;44.70;;;6.90;99.90;;;;;;6264696;23;20905;-79
2022/01/14 09:15:21;;;;;;;283.80;55.17;;;7.00;99.90;;;;;;6226784;23;20441;-80
2022/01/14 09:17:51;;;;;;;196.43;43.70;;;7.00;99.90;;;;;;6227568;23;20437;-79
2022/01/14 09:20:19;;;;;;;354.23;59.37;;;7.00;99.90;;;;;;6255059;23;20422;-79
2022/01/14 09:22:56;;;;;;;342.23;54.10;;;7.00;99.90;;;;;;6227712;23;20769;-80
2022/01/14 09:25:24;;;;;;;454.80;55.43;;;7.00;99.90;;;;;;6227531;23;20425;-79
2022/01/14 09:27:53;;;;;;;275.80;52.20;;;7.00;99.90;;;;;;6227619;23;20421;-79
2022/01/14 09:30:22;;;;;;;297.37;38.13;;;7.00;99.90;;;;;;6228445;23;20479;-79
2022/01/14 09:33:00;;;;;;;297.00;54.93;;;7.10;99.90;;;;;;6252524;23;20401;-80
2022/01/14 09:35:35;;;;;;;309.43;48.23;;;7.10;99.90;;;;;;6226866;23;20516;-79
2022/01/14 09:38:03;;;;;;;297.40;57.87;;;7.10;99.90;;;;;;6224653;23;20453;-80
2022/01/14 09:40:32;;;;;;;263.13;45.20;;;7.10;99.90;;;;;;6225557;23;20468;-80
2022/01/14 09:43:03;;;;;;;350.87;64.87;;;7.10;99.90;;;;;;6252452;23;20396;-80
2022/01/14 09:45:52;;;;;;;391.10;54.10;;;7.20;99.90;;;;;;6226151;23;20430;-79
2022/01/14 09:48:24;;;;;;;201.80;36.63;;;7.20;99.90;;;;;;6225848;23;20489;-79
2022/01/14 09:50:52;;;;;;;173.30;41.33;;;7.20;99.90;;;;;;6226120;23;20434;-80
2022/01/14 09:53:21;;;;;;;226.47;36.87;;;7.20;99.90;;;;;;6226724;23;20443;-80
2022/01/14 09:55:49;;;;;;;401.80;52.73;;;7.20;99.90;;;;;;6226765;23;20510;-80
2022/01/14 09:58:17;;;;;;;291.73;45.57;;;7.20;99.90;;;;;;6264420;23;20431;-80
2022/01/14 10:00:45;;;;;;;340.10;52.47;;;7.20;99.90;;;;;;6252588;22;20513;-80
2022/01/14 10:03:24;;;;;;;289.23;49.43;;;7.20;99.90;;;;;;6251881;22;20446;-80
2022/01/14 10:05:56;;;;;;;339.70;55.13;;;7.30;99.90;;;;;;6263649;22;20414;-80
2022/01/14 10:08:27;;;;;;;246.50;55.10;;;7.30;99.90;;;;;;6252317;23;20438;-80
2022/01/14 10:10:58;;;;;;;317.07;51.20;;;7.30;99.90;;;;;;6251905;23;20470;-80
2022/01/14 10:13:29;;;;;;;356.67;58.23;;;7.30;99.90;;;;;;6231553;23;20717;-80
2022/01/14 10:16:04;;;;;;;409.37;58.57;;;7.30;99.90;;;;;;6229529;23;20442;-79
2022/01/14 10:18:38;;;;;;;356.77;55.50;;;7.30;99.90;;;;;;6229347;23;20877;-80
2022/01/14 10:21:08;;;;;;;318.27;47.43;;;7.30;99.90;;;;;;6228882;23;20431;-80
2022/01/14 10:23:41;;;;;;;252.07;47.10;;;7.40;99.90;;;;;;6256017;23;20422;-80
2022/01/14 10:26:14;;;;;;;222.43;52.40;;;7.30;99.90;;;;;;6229159;23;20449;-80
2022/01/14 10:28:45;;;;;;;343.10;48.70;;;7.40;99.90;;;;;;6229234;23;20717;-79
2022/01/14 10:31:14;;;;;;;238.30;44.97;;;7.40;99.90;;;;;;6266416;23;20705;-79
2022/01/14 10:33:50;;;;;;;254.10;63.07;;;7.40;99.90;;;;;;6230252;23;20418;-80
2022/01/14 10:40:48;;;;;;;519.83;77.60;;;7.40;99.90;;;;;;5899094;23;20425;-79
2022/01/14 10:54:41;;;;;;;389.50;46.73;;;7.50;99.90;;;;;;6030722;23;20443;-80
2022/01/14 10:57:20;;;;;;;218.77;43.03;;;7.50;99.90;;;;;;6023378;23;20417;-80
2022/01/14 10:59:50;;;;;;;344.47;49.67;;;7.50;99.90;;;;;;6072091;23;20430;-79
2022/01/14 11:02:36;;;;;;;542.47;61.27;;;7.50;99.90;;;;;;6145156;23;20437;-80
2022/01/14 11:05:11;;;;;;;380.50;80.70;;;7.50;99.90;;;;;;6168506;23;20474;-80
2022/01/14 11:07:45;;;;;;;150.00;51.60;;;7.50;99.90;;;;;;6167550;23;20428;-80
2022/01/14 11:10:21;;;;;;;217.57;46.63;;;7.50;99.90;;;;;;6212084;23;20445;-79
2022/01/14 11:12:51;;;;;;;348.93;55.87;;;7.60;99.90;;;;;;6266006;23;20378;-80
2022/01/14 11:15:21;;;;;;;400.27;47.10;;;7.60;99.90;;;;;;6228696;23;20433;-80
2022/01/14 11:17:52;;;;;;;248.50;34.73;;;7.60;99.90;;;;;;6253935;22;20422;-79
2022/01/14 11:20:30;;;;;;;359.83;57.90;;;7.60;99.90;;;;;;6229225;23;20430;-79
2022/01/14 11:38:42;;;;;;;227.33;38.87;;;7.60;99.90;;;;;;5794499;24;20433;-79
2022/01/14 11:41:14;;;;;;;166.10;37.80;;;7.70;99.90;;;;;;5906569;24;20179;-80
2022/01/14 11:43:47;;;;;;;400.67;57.87;;;7.70;99.90;;;;;;5933858;23;20462;-79
2022/01/14 11:46:32;;;;;;;344.10;48.20;;;7.70;99.90;;;;;;5993516;23;20483;-79
2022/01/14 11:49:01;;;;;;;211.33;32.67;;;7.70;99.90;;;;;;6159642;23;20928;-79
2022/01/14 11:52:01;;;;;;;201.57;46.10;;;7.80;99.90;;;;;;6097926;23;20801;-79
2022/01/14 11:54:45;;;;;;;181.63;38.83;;;7.80;99.90;;;;;;6171018;23;21038;-79
2022/01/14 11:57:42;;;;;;;286.80;40.07;;;7.80;99.90;;;;;;6243039;23;20425;-80
2022/01/14 12:00:37;;;;;;;421.60;55.33;;;7.80;99.90;;;;;;6225878;23;20492;-79
2022/01/14 12:03:29;;;;;;;298.27;47.37;;;7.80;99.90;;;;;;6226945;23;20470;-79
2022/01/14 12:05:59;;;;;;;277.70;44.33;;;7.80;99.90;;;;;;6253540;22;20430;-79
2022/01/14 12:08:29;;;;;;;288.20;48.63;;;7.80;99.90;;;;;;6255443;23;20485;-79
2022/01/14 12:11:16;;;;;;;383.93;48.53;;;7.90;99.90;;;;;;6264178;23;20460;-79
2022/01/14 12:13:54;;;;;;;383.30;49.93;;;7.90;99.90;;;;;;6224202;23;20725;-79
2022/01/14 12:19:14;;;;;;;147.83;38.17;;;7.90;99.90;;;;;;6215754;23;20462;-79
2022/01/14 12:22:00;;;;;;;464.67;58.63;;;7.90;99.90;;;;;;6231406;23;20418;-79
2022/01/14 12:24:43;;;;;;;271.90;43.17;;;7.90;99.90;;;;;;6230107;23;20434;-79
2022/01/14 12:27:47;;;;;;;363.50;48.57;;;7.90;99.90;;;;;;6230751;23;20818;-79
2022/01/14 12:30:18;;;;;;;350.67;43.10;;;7.90;99.90;;;;;;6170977;22;20445;-79
2022/01/14 12:32:58;;;;;;;297.37;48.60;;;7.90;99.90;;;;;;6256692;23;20478;-79
2022/01/14 12:35:33;;;;;;;178.67;28.13;;;7.90;99.90;;;;;;6266767;22;20479;-80
2022/01/14 12:38:04;;;;;;;460.30;61.57;;;7.90;99.90;;;;;;6257934;23;20442;-79
2022/01/14 12:40:39;;;;;;;410.77;52.03;;;8.00;99.90;;;;;;6257619;23;20413;-79
2022/01/14 12:43:14;;;;;;;238.03;46.50;;;8.00;99.90;;;;;;6254883;23;20807;-79
2022/01/14 12:46:02;;;;;;;287.17;51.87;;;8.00;99.90;;;;;;6256851;22;20748;-79
2022/01/14 12:48:46;;;;;;;256.07;35.40;;;8.00;99.90;;;;;;6230606;23;20474;-79
2022/01/14 12:51:17;;;;;;;352.43;40.80;;;8.00;99.90;;;;;;6230234;23;20425;-79
2022/01/14 12:53:54;;;;;;;374.03;48.27;;;8.10;99.90;;;;;;6230583;23;20398;-79
2022/01/14 12:56:30;;;;;;;202.17;39.47;;;8.00;99.90;;;;;;6230643;23;20409;-79
2022/01/14 12:59:01;;;;;;;447.37;58.77;;;8.00;99.90;;;;;;6231245;23;20424;-79
2022/01/14 13:01:34;;;;;;;369.37;49.17;;;8.00;99.90;;;;;;6230804;23;20472;-79
2022/01/14 13:04:08;;;;;;;383.40;45.63;;;8.00;99.90;;;;;;6257910;22;20907;-79
2022/01/14 13:06:47;;;;;;;136.83;38.33;;;8.00;99.90;;;;;;6231878;23;20416;-79
2022/01/14 13:09:18;;;;;;;294.30;37.87;;;8.00;99.90;;;;;;6231319;23;20438;-79
2022/01/14 13:11:49;;;;;;;288.03;48.40;;;8.00;99.90;;;;;;6230017;23;20413;-79
2022/01/14 13:14:20;;;;;;;347.63;48.67;;;8.00;99.90;;;;;;6256773;22;20497;-79
2022/01/14 13:16:51;;;;;;;273.27;41.97;;;8.00;99.90;;;;;;6230291;23;20436;-79
2022/01/14 13:19:25;;;;;;;218.03;35.93;;;8.00;99.90;;;;;;6267135;23;20406;-79
2022/01/14 13:21:54;;;;;;;211.60;36.23;;;8.00;99.90;;;;;;6256404;23;20409;-79
2022/01/14 13:24:27;;;;;;;200.10;32.30;;;8.00;99.90;;;;;;6228452;23;20456;-79
2022/01/14 13:27:01;;;;;;;229.67;39.90;;;8.00;99.90;;;;;;6267097;23;20399;-79
2022/01/14 13:29:36;;;;;;;348.60;39.57;;;8.00;99.90;;;;;;6256839;23;20406;-79
2022/01/14 13:32:05;;;;;;;396.50;57.13;;;8.00;99.90;;;;;;6228466;23;20408;-79
2022/01/14 13:34:37;;;;;;;211.10;41.57;;;8.00;99.90;;;;;;6264350;22;20472;-79
2022/01/14 13:37:06;;;;;;;413.43;51.63;;;8.00;99.90;;;;;;6226808;23;20434;-79
2022/01/14 13:39:41;;;;;;;235.27;41.60;;;8.00;99.90;;;;;;6226860;23;20435;-80
2022/01/14 13:42:24;;;;;;;332.00;42.07;;;8.00;99.90;;;;;;6264211;23;20735;-79
2022/01/14 13:44:53;;;;;;;334.37;34.73;;;8.00;99.90;;;;;;6252453;23;20482;-79
2022/01/14 13:47:22;;;;;;;510.17;54.10;;;8.00;99.90;;;;;;6227728;23;20455;-79
2022/01/14 13:50:17;;;;;;;335.83;34.27;;;8.00;99.90;;;;;;6254681;23;20473;-79
2022/01/14 13:52:48;;;;;;;539.27;51.83;;;8.00;99.90;;;;;;6255495;23;20392;-79
2022/01/14 13:55:37;;;;;;;179.87;32.93;;;7.90;99.90;;;;;;6227965;23;20439;-79
2022/01/14 13:58:08;;;;;;;354.07;57.87;;;8.00;99.90;;;;;;6252739;23;20428;-79
2022/01/14 14:00:37;;;;;;;314.43;50.00;;;7.90;99.90;;;;;;6253646;23;20394;-78
2022/01/14 14:03:21;;;;;;;135.23;37.57;;;7.90;99.90;;;;;;6227248;23;20522;-79
2022/01/14 14:05:56;;;;;;;475.47;57.77;;;7.90;99.90;;;;;;6228085;23;20503;-79
2022/01/14 14:08:46;;;;;;;446.20;55.97;;;7.90;99.90;;;;;;6227664;23;20414;-79
2022/01/14 14:12:01;;;;;;;386.53;48.07;;;7.90;99.90;;;;;;6253591;23;20467;-79
2022/01/14 14:17:16;;;;;;;408.53;59.10;;;7.90;99.90;;;;;;6255100;23;20400;-79
2022/01/14 14:19:47;;;;;;;393.30;49.97;;;7.90;99.90;;;;;;6252012;22;20518;-79
2022/01/14 14:22:19;;;;;;;326.23;41.57;;;7.90;99.90;;;;;;6226732;23;20414;-79
2022/01/14 14:24:56;;;;;;;207.10;41.13;;;8.00;99.90;;;;;;6253800;22;20450;-80
2022/01/14 14:27:26;;;;;;;444.23;44.80;;;7.90;99.90;;;;;;6254351;23;20416;-79
2022/01/14 14:29:57;;;;;;;301.27;45.73;;;8.00;99.90;;;;;;6227557;23;20425;-79
2022/01/14 14:32:30;;;;;;;445.93;65.10;;;8.00;99.90;;;;;;6227330;23;20782;-79
2022/01/14 14:35:01;;;;;;;370.07;55.40;;;8.00;99.90;;;;;;6226752;23;20430;-79
2022/01/14 14:37:33;;;;;;;405.43;65.27;;;8.00;99.90;;;;;;6252619;23;20503;-79
2022/01/14 14:40:03;;;;;;;269.50;35.50;;;8.00;99.90;;;;;;6226939;23;20505;-79
2022/01/14 14:42:31;;;;;;;337.03;48.70;;;8.00;99.90;;;;;;6253499;23;20411;-79
2022/01/14 14:45:00;;;;;;;305.90;55.00;;;7.90;99.90;;;;;;6264082;22;20444;-79
2022/01/14 14:47:29;;;;;;;461.73;76.33;;;7.90;99.90;;;;;;6226568;23;20750;-79
2022/01/14 14:50:01;;;;;;;371.83;52.87;;;7.90;99.90;;;;;;6227031;23;20413;-79
2022/01/14 14:52:31;;;;;;;287.47;58.53;;;7.90;99.90;;;;;;6263724;23;20773;-79
2022/01/14 14:54:59;;;;;;;380.90;64.10;;;7.90;99.90;;;;;;6226075;23;20520;-78
2022/01/14 14:57:30;;;;;;;388.83;58.00;;;7.90;99.90;;;;;;6250819;23;20410;-79
2022/01/14 14:59:58;;;;;;;470.87;59.97;;;7.90;99.90;;;;;;6226994;23;20431;-79
2022/01/14 15:02:29;;;;;;;424.30;55.87;;;7.90;99.90;;;;;;6226177;23;20452;-78
2022/01/14 15:04:59;;;;;;;297.20;47.73;;;7.90;99.90;;;;;;6227014;23;20848;-79
2022/01/14 15:07:27;;;;;;;331.93;56.00;;;7.90;99.90;;;;;;6227224;23;20502;-79
2022/01/14 15:09:59;;;;;;;337.77;45.73;;;7.90;99.90;;;;;;6251950;23;20452;-79
2022/01/14 15:12:27;;;;;;;433.53;57.87;;;7.90;99.90;;;;;;6225862;23;20413;-79
2022/01/14 15:15:05;;;;;;;130.10;36.73;;;7.90;99.90;;;;;;6263071;22;20493;-79
2022/01/14 15:20:18;;;;;;;427.83;65.87;;;7.90;99.90;;;;;;6215841;23;20434;-79
2022/01/14 15:22:47;;;;;;;268.50;40.00;;;7.90;99.90;;;;;;6267133;23;20416;-79
2022/01/14 15:25:16;;;;;;;309.80;53.60;;;7.90;99.90;;;;;;6229799;23;20859;-79
2022/01/14 15:27:44;;;;;;;367.37;60.90;;;7.90;99.90;;;;;;6255235;23;20504;-79
2022/01/14 15:30:15;;;;;;;228.67;42.50;;;7.90;99.90;;;;;;6256636;23;20416;-79
2022/01/14 15:32:43;;;;;;;412.67;67.53;;;7.90;99.90;;;;;;6257171;23;20460;-80
2022/01/14 15:35:12;;;;;;;267.60;43.97;;;7.90;99.90;;;;;;6255136;22;20525;-79
2022/01/14 15:37:40;;;;;;;312.40;48.13;;;7.90;99.90;;;;;;6268047;23;20429;-79
2022/01/14 15:40:12;;;;;;;303.23;51.60;;;7.90;99.90;;;;;;6229961;23;20451;-79
2022/01/14 15:42:42;;;;;;;469.67;75.47;;;7.90;99.90;;;;;;6255216;23;20470;-79
2022/01/14 15:45:14;;;;;;;179.63;35.20;;;7.90;99.90;;;;;;6267431;22;20474;-79
2022/01/14 15:47:42;;;;;;;278.47;45.77;;;7.90;99.90;;;;;;6230152;23;20409;-79
2022/01/14 15:50:14;;;;;;;458.33;55.80;;;7.90;99.90;;;;;;6254209;23;20413;-79